Terminal Aerodrome Forecast
Issued by NWS

Home | Current Version | Previous Version | Text Only | Print | Product List | Glossary On
Versions: 1 2 3 4 5 6 7 8 9 10 11 12 13 14
899
FTUS42 KMHX 091721
TAFPGV
TAF
KPGV 091721Z 0918/1018 26008G15KT P6SM SCT040 OVC080
     FM100000 26005KT P6SM SCT050
      AMD LTD TO CLD VIS AND WIND=

USA.gov is the U.S. government's official web portal to all federal, state and local government web resources and services.